createdAt,value
2022-12-15T00:00:55.568Z,-7.94
2022-12-15T00:04:45.696Z,-7.96
2022-12-15T00:08:30.951Z,-7.99
2022-12-15T00:12:14.878Z,-8.03
2022-12-15T00:15:59.157Z,-8.06
2022-12-15T00:19:43.855Z,-8.12
2022-12-15T00:23:29.473Z,-8.18
2022-12-15T00:27:13.914Z,-8.24
2022-12-15T00:31:02.253Z,-8.29
2022-12-15T00:34:45.742Z,-8.34
2022-12-15T00:38:32.546Z,-8.38
2022-12-15T00:41:59.192Z,-8.42
2022-12-15T00:45:46.709Z,-8.45
2022-12-15T00:49:27.526Z,-8.48
2022-12-15T00:53:11.746Z,-8.53
2022-12-15T00:56:56.310Z,-8.58
2022-12-15T01:00:40.799Z,-8.62
2022-12-15T01:04:25.343Z,-8.66
2022-12-15T01:08:09.574Z,-8.70
2022-12-15T01:11:54.169Z,-8.73
2022-12-15T01:15:38.796Z,-8.78
2022-12-15T01:19:23.662Z,-8.81
2022-12-15T01:22:52.957Z,-8.85
2022-12-15T01:26:20.558Z,-8.89
2022-12-15T01:29:47.557Z,-8.92
2022-12-15T01:33:14.693Z,-8.95
2022-12-15T01:36:41.782Z,-8.98
2022-12-15T01:40:30.138Z,-9.01
2022-12-15T01:44:15.295Z,-9.07
2022-12-15T01:47:42.752Z,-9.12
2022-12-15T01:51:21.611Z,-9.16
2022-12-15T01:54:49.672Z,-9.20
2022-12-15T01:58:18.876Z,-9.25
2022-12-15T02:01:49.556Z,-9.30
2022-12-15T02:05:17.002Z,-9.35
2022-12-15T02:08:46.310Z,-9.40
2022-12-15T02:12:22.884Z,-9.42
2022-12-15T02:15:55.316Z,-9.46
2022-12-15T02:19:49.258Z,-9.50
2022-12-15T02:23:46.823Z,-9.54
2022-12-15T02:27:48.825Z,-9.58
2022-12-15T02:31:38.651Z,-9.61
2022-12-15T02:35:11.938Z,-9.62
2022-12-15T02:38:41.807Z,-9.63
2022-12-15T02:42:10.415Z,-9.66
2022-12-15T02:45:42.570Z,-9.68
2022-12-15T02:49:20.264Z,-9.69
2022-12-15T02:52:59.237Z,-9.70
2022-12-15T02:56:27.217Z,-9.69
2022-12-15T02:59:59.040Z,-9.68
2022-12-15T03:03:27.762Z,-9.68
2022-12-15T03:07:00.908Z,-9.70
2022-12-15T03:10:29.307Z,-9.74
2022-12-15T03:13:56.510Z,-9.77
2022-12-15T03:17:23.708Z,-9.79
2022-12-15T03:20:50.584Z,-9.79
2022-12-15T03:24:17.365Z,-9.80
2022-12-15T03:27:44.371Z,-9.82
2022-12-15T03:31:11.488Z,-9.83
2022-12-15T03:34:38.207Z,-9.85
2022-12-15T03:38:05.146Z,-9.88
2022-12-15T03:41:31.852Z,-9.93
2022-12-15T03:44:58.847Z,-9.97
2022-12-15T03:48:26.007Z,-10.02
2022-12-15T03:51:53.892Z,-10.06
2022-12-15T03:55:21.450Z,-10.09
2022-12-15T03:58:48.147Z,-10.13
2022-12-15T04:02:15.350Z,-10.17
2022-12-15T04:05:42.924Z,-10.21
2022-12-15T04:09:09.970Z,-10.25
2022-12-15T04:12:39.898Z,-10.29
2022-12-15T04:16:07.641Z,-10.31
2022-12-15T04:19:52.012Z,-10.35
2022-12-15T04:23:19.153Z,-10.38
2022-12-15T04:27:03.658Z,-10.41
2022-12-15T04:30:48.963Z,-10.43
2022-12-15T04:34:37.205Z,-10.46
2022-12-15T04:38:22.233Z,-10.49
2022-12-15T04:42:06.627Z,-10.51
2022-12-15T04:45:51.470Z,-10.52
2022-12-15T04:49:35.851Z,-10.53
2022-12-15T04:53:30.577Z,-10.52
2022-12-15T04:57:15.542Z,-10.51
2022-12-15T05:01:00.066Z,-10.50
2022-12-15T05:04:44.691Z,-10.47
2022-12-15T05:08:29.247Z,-10.46
2022-12-15T05:12:13.561Z,-10.47
2022-12-15T05:15:58.378Z,-10.49
2022-12-15T05:19:43.060Z,-10.50
2022-12-15T05:23:27.880Z,-10.49
2022-12-15T05:27:12.380Z,-10.48
2022-12-15T05:30:56.780Z,-10.48
2022-12-15T05:34:26.237Z,-10.48
2022-12-15T05:37:53.594Z,-10.50
2022-12-15T05:41:22.029Z,-10.53
2022-12-15T05:44:48.746Z,-10.55
2022-12-15T05:48:16.788Z,-10.57
2022-12-15T05:51:45.115Z,-10.58
2022-12-15T05:55:12.621Z,-10.59
2022-12-15T05:58:45.043Z,-10.59
2022-12-15T06:02:12.690Z,-10.60
2022-12-15T06:05:40.468Z,-10.60
2022-12-15T06:09:07.471Z,-10.62
2022-12-15T06:12:34.222Z,-10.64
2022-12-15T06:16:02.789Z,-10.67
2022-12-15T06:19:29.573Z,-10.68
2022-12-15T06:22:56.322Z,-10.68
2022-12-15T06:26:25.462Z,-10.69
2022-12-15T06:29:52.157Z,-10.70
2022-12-15T06:33:19.236Z,-10.70
2022-12-15T06:36:46.730Z,-10.72
2022-12-15T06:40:14.470Z,-10.73
2022-12-15T06:43:41.201Z,-10.75
2022-12-15T06:47:08.438Z,-10.75
2022-12-15T06:50:36.594Z,-10.76
2022-12-15T06:54:03.492Z,-10.75
2022-12-15T06:57:30.236Z,-10.75
2022-12-15T07:00:57.495Z,-10.75
2022-12-15T07:04:24.277Z,-10.73
2022-12-15T07:07:53.119Z,-10.70
2022-12-15T07:11:20.870Z,-10.67
2022-12-15T07:14:53.215Z,-10.65
2022-12-15T07:18:20.885Z,-10.60
2022-12-15T07:21:47.956Z,-10.55
2022-12-15T07:25:14.654Z,-10.48
2022-12-15T07:28:42.169Z,-10.40
2022-12-15T07:32:09.300Z,-10.32
2022-12-15T07:35:36.123Z,-10.22
2022-12-15T07:39:04.936Z,-10.09
2022-12-15T07:42:31.683Z,-9.95
2022-12-15T07:45:58.794Z,-9.77
2022-12-15T07:49:25.823Z,-9.55
2022-12-15T07:52:53.156Z,-9.29
2022-12-15T07:56:21.090Z,-9.02
2022-12-15T07:59:48.635Z,-8.79
2022-12-15T08:03:15.531Z,-8.59
2022-12-15T08:06:43.086Z,-8.43
2022-12-15T08:10:10.835Z,-8.30
2022-12-15T08:14:01.903Z,-8.16
2022-12-15T08:17:25.669Z,-8.03
2022-12-15T08:20:52.405Z,-7.96
2022-12-15T08:24:19.750Z,-7.88
2022-12-15T08:27:46.628Z,-7.77
2022-12-15T08:31:15.625Z,-7.65
2022-12-15T08:34:42.391Z,-7.49
2022-12-15T08:38:09.050Z,-7.32
2022-12-15T08:41:35.766Z,-7.16
2022-12-15T08:45:02.501Z,-6.98
2022-12-15T08:48:29.350Z,-6.76
2022-12-15T08:51:56.128Z,-6.54
2022-12-15T08:55:23.805Z,-6.33
2022-12-15T08:58:55.761Z,-6.18
2022-12-15T09:02:23.183Z,-6.05
2022-12-15T09:05:50.682Z,-5.90
2022-12-15T09:09:17.513Z,-5.76
2022-12-15T09:12:44.560Z,-5.63
2022-12-15T09:16:15.656Z,-5.50
2022-12-15T09:19:42.661Z,-5.35
2022-12-15T09:23:09.353Z,-5.20
2022-12-15T09:26:36.952Z,-5.05
2022-12-15T09:30:04.322Z,-4.92
2022-12-15T09:33:31.602Z,-4.77
2022-12-15T09:36:59.162Z,-4.67
2022-12-15T09:40:25.970Z,-4.60
2022-12-15T09:43:59.717Z,-4.52
2022-12-15T09:47:35.884Z,-4.39
2022-12-15T09:51:05.395Z,-4.27
2022-12-15T09:54:35.419Z,-4.14
2022-12-15T09:58:11.128Z,-4.01
2022-12-15T10:01:45.139Z,-3.88
2022-12-15T10:05:38.180Z,-3.74
2022-12-15T10:09:19.461Z,-3.57
2022-12-15T10:12:59.839Z,-3.42
2022-12-15T10:16:34.642Z,-3.27
2022-12-15T10:20:08.461Z,-3.14
2022-12-15T10:23:37.667Z,-3.03
2022-12-15T10:27:19.940Z,-2.97
2022-12-15T10:30:59.598Z,-2.88
2022-12-15T10:34:31.074Z,-2.79
2022-12-15T10:38:01.260Z,-2.72
2022-12-15T10:41:32.787Z,-2.64
2022-12-15T10:45:00.730Z,-2.56
2022-12-15T10:48:27.455Z,-2.51
2022-12-15T10:51:57.341Z,-2.45
2022-12-15T10:55:39.351Z,-2.39
2022-12-15T10:59:23.302Z,-2.32
2022-12-15T11:02:50.299Z,-2.27
2022-12-15T11:06:21.641Z,-2.20
2022-12-15T11:09:50.948Z,-2.13
2022-12-15T11:13:19.863Z,-2.05
2022-12-15T11:16:53.603Z,-2.00
2022-12-15T11:20:29.141Z,-1.98
2022-12-15T11:24:06.563Z,-1.96
2022-12-15T11:27:37.405Z,-1.97
2022-12-15T11:31:14.379Z,-1.98
2022-12-15T11:34:46.337Z,-1.97
2022-12-15T11:38:22.369Z,-2.01
2022-12-15T11:41:58.872Z,-2.05
2022-12-15T11:45:33.924Z,-2.09
2022-12-15T11:49:25.553Z,-2.12
2022-12-15T11:53:15.961Z,-2.13
2022-12-15T11:56:48.975Z,-2.16
2022-12-15T12:15:17.647Z,-2.21
2022-12-15T12:24:18.225Z,-2.27
2022-12-15T12:33:24.777Z,-2.31
2022-12-15T12:37:23.337Z,-2.39
2022-12-15T12:41:00.589Z,-2.46
2022-12-15T12:44:33.474Z,-2.47
2022-12-15T12:48:04.437Z,-2.46
2022-12-15T12:51:33.498Z,-2.47
2022-12-15T12:55:03.281Z,-2.51
2022-12-15T12:58:39.106Z,-2.52
2022-12-15T13:02:38.205Z,-2.52
2022-12-15T13:06:24.108Z,-2.56
2022-12-15T13:10:14.879Z,-2.57
2022-12-15T13:13:51.205Z,-2.58
2022-12-15T13:17:27.252Z,-2.61
2022-12-15T13:20:57.486Z,-2.63
2022-12-15T13:24:34.480Z,-2.66
2022-12-15T13:28:03.928Z,-2.68
2022-12-15T13:31:47.245Z,-2.68
2022-12-15T13:35:32.261Z,-2.70
2022-12-15T13:38:59.005Z,-2.74
2022-12-15T13:42:48.257Z,-2.77
2022-12-15T13:46:27.368Z,-2.79
2022-12-15T13:50:02.117Z,-2.83
2022-12-15T13:53:33.648Z,-2.89
2022-12-15T13:57:06.060Z,-2.95
2022-12-15T14:00:33.935Z,-2.97
2022-12-15T14:04:08.321Z,-3.01
2022-12-15T14:07:36.008Z,-3.04
2022-12-15T14:11:22.427Z,-3.09
2022-12-15T14:14:52.422Z,-3.14
2022-12-15T14:18:28.889Z,-3.19
2022-12-15T14:21:58.192Z,-3.25
2022-12-15T14:25:29.281Z,-3.28
2022-12-15T14:29:03.825Z,-3.28
2022-12-15T14:32:30.888Z,-3.28
2022-12-15T14:35:59.406Z,-3.31
2022-12-15T14:39:31.805Z,-3.34
2022-12-15T14:42:59.102Z,-3.38
2022-12-15T14:46:28.575Z,-3.42
2022-12-15T14:49:56.924Z,-3.45
2022-12-15T14:53:24.431Z,-3.48
2022-12-15T14:57:00.497Z,-3.52
2022-12-15T15:00:31.265Z,-3.58
2022-12-15T15:04:02.859Z,-3.62
2022-12-15T15:07:30.743Z,-3.66
2022-12-15T15:11:00.910Z,-3.70
2022-12-15T15:14:31.660Z,-3.72
2022-12-15T15:18:00.505Z,-3.76
2022-12-15T15:21:29.782Z,-3.82
2022-12-15T15:24:56.526Z,-3.86
2022-12-15T15:28:29.274Z,-3.90
2022-12-15T15:32:05.696Z,-3.95
2022-12-15T15:35:35.235Z,-4.00
2022-12-15T15:39:03.199Z,-4.05
2022-12-15T15:42:32.680Z,-4.10
2022-12-15T15:46:04.280Z,-4.14
2022-12-15T15:49:37.658Z,-4.16
2022-12-15T15:53:06.813Z,-4.19
2022-12-15T15:56:34.527Z,-4.22
2022-12-15T16:00:02.802Z,-4.24
2022-12-15T16:03:34.751Z,-4.24
2022-12-15T16:07:01.891Z,-4.23
2022-12-15T16:10:29.017Z,-4.24
2022-12-15T16:13:56.703Z,-4.25
2022-12-15T16:17:24.001Z,-4.27
2022-12-15T16:20:53.076Z,-4.27
2022-12-15T16:24:21.282Z,-4.29
2022-12-15T16:27:48.176Z,-4.30
2022-12-15T16:31:29.447Z,-4.30
2022-12-15T16:34:58.497Z,-4.29
2022-12-15T16:38:27.909Z,-4.29
2022-12-15T16:41:56.468Z,-4.29
2022-12-15T16:45:26.212Z,-4.29
2022-12-15T16:48:53.599Z,-4.29
2022-12-15T16:52:22.923Z,-4.30
2022-12-15T16:55:53.011Z,-4.30
2022-12-15T16:59:36.857Z,-4.30
2022-12-15T17:03:04.331Z,-4.32
2022-12-15T17:06:31.357Z,-4.33
2022-12-15T17:09:58.245Z,-4.34
2022-12-15T17:13:37.680Z,-4.36
2022-12-15T17:17:13.698Z,-4.38
2022-12-15T17:20:40.452Z,-4.39
2022-12-15T17:24:13.327Z,-4.41
2022-12-15T17:27:40.103Z,-4.42
2022-12-15T17:31:06.921Z,-4.42
2022-12-15T17:34:34.936Z,-4.42
2022-12-15T17:38:01.545Z,-4.44
2022-12-15T17:41:57.904Z,-4.49
2022-12-15T17:45:19.841Z,-4.63
2022-12-15T17:48:47.105Z,-4.77
2022-12-15T17:52:27.283Z,-4.92
2022-12-15T17:55:55.501Z,-5.07
2022-12-15T17:59:22.828Z,-5.22
2022-12-15T18:02:50.336Z,-5.37
2022-12-15T18:06:18.745Z,-5.50
2022-12-15T18:09:45.630Z,-5.63
2022-12-15T18:13:18.778Z,-5.78
2022-12-15T18:16:46.598Z,-5.90
2022-12-15T18:20:14.382Z,-6.02
2022-12-15T18:23:41.194Z,-6.14
2022-12-15T18:27:20.447Z,-6.28
2022-12-15T18:30:47.563Z,-6.40
2022-12-15T18:34:21.972Z,-6.51
2022-12-15T18:37:48.925Z,-6.60
2022-12-15T18:41:18.152Z,-6.69
2022-12-15T18:44:48.125Z,-6.75
2022-12-15T18:48:18.961Z,-6.79
2022-12-15T18:51:46.495Z,-6.85
2022-12-15T18:55:21.272Z,-6.93
2022-12-15T18:58:48.240Z,-7.00
2022-12-15T19:02:15.105Z,-7.06
2022-12-15T19:05:42.094Z,-7.14
2022-12-15T19:09:14.478Z,-7.21
2022-12-15T19:12:41.794Z,-7.28
2022-12-15T19:16:16.031Z,-7.33
2022-12-15T19:20:00.514Z,-7.38
2022-12-15T19:23:27.278Z,-7.42
2022-12-15T19:26:53.806Z,-7.48
2022-12-15T19:30:22.530Z,-7.53
2022-12-15T19:33:49.088Z,-7.55
2022-12-15T19:37:23.771Z,-7.58
2022-12-15T19:40:53.279Z,-7.60
2022-12-15T19:44:20.209Z,-7.65
2022-12-15T19:47:46.992Z,-7.69
2022-12-15T19:51:15.871Z,-7.72
2022-12-15T19:54:44.127Z,-7.76
2022-12-15T19:58:29.055Z,-7.78
2022-12-15T20:01:56.207Z,-7.80
2022-12-15T20:05:24.235Z,-7.82
2022-12-15T20:08:53.316Z,-7.83
2022-12-15T20:12:22.664Z,-7.81
2022-12-15T20:15:49.399Z,-7.80
2022-12-15T20:19:16.005Z,-7.80
2022-12-15T20:22:42.762Z,-7.81
2022-12-15T20:26:12.067Z,-7.82
2022-12-15T20:29:38.768Z,-7.84
2022-12-15T20:33:06.804Z,-7.86
2022-12-15T20:36:33.644Z,-7.88
2022-12-15T20:40:00.238Z,-7.91
2022-12-15T20:43:31.147Z,-7.95
2022-12-15T20:46:58.051Z,-7.97
2022-12-15T20:50:34.992Z,-7.99
2022-12-15T20:54:03.864Z,-8.00
2022-12-15T20:57:29.257Z,-8.01
2022-12-15T21:00:56.491Z,-8.07
2022-12-15T21:04:27.665Z,-8.13
2022-12-15T21:07:55.235Z,-8.19
2022-12-15T21:11:24.322Z,-8.20
2022-12-15T21:14:51.363Z,-8.21
2022-12-15T21:18:57.560Z,-8.22
2022-12-15T21:22:06.431Z,-8.23
2022-12-15T21:25:33.105Z,-8.24
2022-12-15T21:29:03.250Z,-8.24
2022-12-15T21:32:30.286Z,-8.25
2022-12-15T21:35:56.888Z,-8.27
2022-12-15T21:39:29.304Z,-8.29
2022-12-15T21:42:57.178Z,-8.33
2022-12-15T21:46:28.839Z,-8.39
2022-12-15T21:49:56.088Z,-8.44
2022-12-15T21:53:23.267Z,-8.49
2022-12-15T21:56:51.292Z,-8.53
2022-12-15T22:00:21.257Z,-8.54
2022-12-15T22:03:52.787Z,-8.54
2022-12-15T22:07:21.806Z,-8.54
2022-12-15T22:10:50.602Z,-8.53
2022-12-15T22:14:25.241Z,-8.51
2022-12-15T22:17:52.141Z,-8.48
2022-12-15T22:21:18.915Z,-8.45
2022-12-15T22:24:46.100Z,-8.44
2022-12-15T22:28:22.671Z,-8.44
2022-12-15T22:31:50.400Z,-8.44
2022-12-15T22:35:19.513Z,-8.44
2022-12-15T22:38:46.944Z,-8.47
2022-12-15T22:42:17.973Z,-8.50
2022-12-15T22:45:44.642Z,-8.53
2022-12-15T22:49:17.819Z,-8.56
2022-12-15T22:52:46.349Z,-8.58
2022-12-15T22:56:32.302Z,-8.61
2022-12-15T23:00:04.188Z,-8.64
2022-12-15T23:03:31.801Z,-8.68
2022-12-15T23:06:59.914Z,-8.71
2022-12-15T23:10:44.666Z,-8.76
2022-12-15T23:14:13.053Z,-8.82
2022-12-15T23:17:39.685Z,-8.87
2022-12-15T23:21:08.163Z,-8.92
2022-12-15T23:24:35.236Z,-8.97
2022-12-15T23:28:01.972Z,-9.00
2022-12-15T23:31:29.065Z,-9.03
2022-12-15T23:34:56.173Z,-9.06
2022-12-15T23:38:23.337Z,-9.09
2022-12-15T23:41:49.925Z,-9.10
2022-12-15T23:45:18.192Z,-9.12
2022-12-15T23:48:45.656Z,-9.13
2022-12-15T23:52:12.823Z,-9.14
2022-12-15T23:55:39.449Z,-9.15
2022-12-15T23:59:06.132Z,-9.18
